sensor_id;sensor_type;location;lat;lon;timestamp;temperature;humidity
32173;DHT22;18679;45.190;5.722;2024-01-16T00:01:32;8.40;63.00
32173;DHT22;18679;45.190;5.722;2024-01-16T00:04:35;8.30;63.00
32173;DHT22;18679;45.190;5.722;2024-01-16T00:07:39;8.30;63.10
32173;DHT22;18679;45.190;5.722;2024-01-16T00:10:40;8.30;63.10
32173;DHT22;18679;45.190;5.722;2024-01-16T00:13:41;8.30;63.10
32173;DHT22;18679;45.190;5.722;2024-01-16T00:16:43;8.30;63.10
32173;DHT22;18679;45.190;5.722;2024-01-16T00:19:44;8.20;62.90
32173;DHT22;18679;45.190;5.722;2024-01-16T00:22:45;8.20;62.90
32173;DHT22;18679;45.190;5.722;2024-01-16T00:25:46;8.10;62.90
32173;DHT22;18679;45.190;5.722;2024-01-16T00:28:47;8.00;63.00
32173;DHT22;18679;45.190;5.722;2024-01-16T00:31:48;8.00;63.30
32173;DHT22;18679;45.190;5.722;2024-01-16T00:34:49;8.00;63.40
32173;DHT22;18679;45.190;5.722;2024-01-16T00:37:51;7.90;63.40
32173;DHT22;18679;45.190;5.722;2024-01-16T00:40:52;7.90;63.50
32173;DHT22;18679;45.190;5.722;2024-01-16T00:43:54;7.80;63.30
32173;DHT22;18679;45.190;5.722;2024-01-16T00:46:57;7.80;63.50
32173;DHT22;18679;45.190;5.722;2024-01-16T00:49:58;7.70;63.50
32173;DHT22;18679;45.190;5.722;2024-01-16T00:53:02;7.90;63.60
32173;DHT22;18679;45.190;5.722;2024-01-16T00:56:03;7.60;63.60
32173;DHT22;18679;45.190;5.722;2024-01-16T00:59:05;7.60;63.60
32173;DHT22;18679;45.190;5.722;2024-01-16T01:02:07;7.70;63.70
32173;DHT22;18679;45.190;5.722;2024-01-16T01:05:10;7.70;63.70
32173;DHT22;18679;45.190;5.722;2024-01-16T01:08:12;7.60;63.60
32173;DHT22;18679;45.190;5.722;2024-01-16T01:11:13;7.50;63.50
32173;DHT22;18679;45.190;5.722;2024-01-16T01:14:14;7.60;63.70
32173;DHT22;18679;45.190;5.722;2024-01-16T01:17:15;7.50;63.70
32173;DHT22;18679;45.190;5.722;2024-01-16T01:20:18;7.50;63.90
32173;DHT22;18679;45.190;5.722;2024-01-16T01:23:20;7.50;64.00
32173;DHT22;18679;45.190;5.722;2024-01-16T01:26:21;7.50;64.00
32173;DHT22;18679;45.190;5.722;2024-01-16T01:29:24;7.50;63.90
32173;DHT22;18679;45.190;5.722;2024-01-16T01:32:25;7.60;63.90
32173;DHT22;18679;45.190;5.722;2024-01-16T01:35:27;7.60;63.80
32173;DHT22;18679;45.190;5.722;2024-01-16T01:38:28;7.60;63.70
32173;DHT22;18679;45.190;5.722;2024-01-16T01:41:30;7.60;63.80
32173;DHT22;18679;45.190;5.722;2024-01-16T01:44:31;7.60;63.70
32173;DHT22;18679;45.190;5.722;2024-01-16T01:47:33;7.60;63.60
32173;DHT22;18679;45.190;5.722;2024-01-16T01:50:34;7.70;63.70
32173;DHT22;18679;45.190;5.722;2024-01-16T01:53:36;7.70;63.80
32173;DHT22;18679;45.190;5.722;2024-01-16T01:56:38;7.80;63.70
32173;DHT22;18679;45.190;5.722;2024-01-16T01:59:40;7.70;63.50
32173;DHT22;18679;45.190;5.722;2024-01-16T02:02:41;7.90;63.50
32173;DHT22;18679;45.190;5.722;2024-01-16T02:05:43;7.70;63.40
32173;DHT22;18679;45.190;5.722;2024-01-16T02:08:45;7.60;63.30
32173;DHT22;18679;45.190;5.722;2024-01-16T02:11:46;7.60;63.30
32173;DHT22;18679;45.190;5.722;2024-01-16T02:14:46;7.50;63.30
32173;DHT22;18679;45.190;5.722;2024-01-16T02:17:48;7.50;63.40
32173;DHT22;18679;45.190;5.722;2024-01-16T02:20:50;7.50;63.60
32173;DHT22;18679;45.190;5.722;2024-01-16T02:23:51;7.50;63.60
32173;DHT22;18679;45.190;5.722;2024-01-16T02:26:53;7.50;63.60
32173;DHT22;18679;45.190;5.722;2024-01-16T02:29:55;7.50;63.60
32173;DHT22;18679;45.190;5.722;2024-01-16T02:32:58;7.50;63.60
32173;DHT22;18679;45.190;5.722;2024-01-16T02:35:58;7.50;63.60
32173;DHT22;18679;45.190;5.722;2024-01-16T02:39:00;7.50;63.70
32173;DHT22;18679;45.190;5.722;2024-01-16T02:42:01;7.50;63.70
32173;DHT22;18679;45.190;5.722;2024-01-16T02:45:04;7.50;63.70
32173;DHT22;18679;45.190;5.722;2024-01-16T02:48:06;7.50;63.50
32173;DHT22;18679;45.190;5.722;2024-01-16T02:51:06;7.40;63.30
32173;DHT22;18679;45.190;5.722;2024-01-16T02:54:08;7.50;63.20
32173;DHT22;18679;45.190;5.722;2024-01-16T02:57:09;7.40;63.30
32173;DHT22;18679;45.190;5.722;2024-01-16T03:00:10;7.40;63.30
32173;DHT22;18679;45.190;5.722;2024-01-16T03:03:17;7.40;63.30
32173;DHT22;18679;45.190;5.722;2024-01-16T03:06:22;7.40;63.30
32173;DHT22;18679;45.190;5.722;2024-01-16T03:09:24;7.40;63.30
32173;DHT22;18679;45.190;5.722;2024-01-16T03:12:24;7.40;63.30
32173;DHT22;18679;45.190;5.722;2024-01-16T03:15:25;7.30;63.10
32173;DHT22;18679;45.190;5.722;2024-01-16T03:18:26;7.40;63.10
32173;DHT22;18679;45.190;5.722;2024-01-16T03:21:27;7.40;63.10
32173;DHT22;18679;45.190;5.722;2024-01-16T03:24:28;7.40;63.30
32173;DHT22;18679;45.190;5.722;2024-01-16T03:27:28;7.50;63.20
32173;DHT22;18679;45.190;5.722;2024-01-16T03:30:29;7.50;63.10
32173;DHT22;18679;45.190;5.722;2024-01-16T03:33:31;7.50;63.00
32173;DHT22;18679;45.190;5.722;2024-01-16T03:36:32;7.50;63.00
32173;DHT22;18679;45.190;5.722;2024-01-16T03:39:33;7.60;63.10
32173;DHT22;18679;45.190;5.722;2024-01-16T03:42:34;7.60;63.00
32173;DHT22;18679;45.190;5.722;2024-01-16T03:45:35;7.60;62.90
32173;DHT22;18679;45.190;5.722;2024-01-16T03:48:36;7.60;62.90
32173;DHT22;18679;45.190;5.722;2024-01-16T03:51:37;7.60;63.00
32173;DHT22;18679;45.190;5.722;2024-01-16T03:54:38;7.60;62.80
32173;DHT22;18679;45.190;5.722;2024-01-16T03:57:39;7.60;62.80
32173;DHT22;18679;45.190;5.722;2024-01-16T04:00:40;7.60;62.80
32173;DHT22;18679;45.190;5.722;2024-01-16T04:03:41;7.80;62.90
32173;DHT22;18679;45.190;5.722;2024-01-16T04:06:42;7.80;62.90
32173;DHT22;18679;45.190;5.722;2024-01-16T04:09:43;7.90;62.80
32173;DHT22;18679;45.190;5.722;2024-01-16T04:12:44;8.00;62.70
32173;DHT22;18679;45.190;5.722;2024-01-16T04:15:45;8.00;62.50
32173;DHT22;18679;45.190;5.722;2024-01-16T04:18:45;8.00;62.30
32173;DHT22;18679;45.190;5.722;2024-01-16T04:21:46;8.00;62.30
32173;DHT22;18679;45.190;5.722;2024-01-16T04:24:47;8.10;62.30
32173;DHT22;18679;45.190;5.722;2024-01-16T04:27:48;8.10;62.40
32173;DHT22;18679;45.190;5.722;2024-01-16T04:30:51;8.00;62.50
32173;DHT22;18679;45.190;5.722;2024-01-16T04:33:51;8.10;62.50
32173;DHT22;18679;45.190;5.722;2024-01-16T04:36:54;8.10;62.40
32173;DHT22;18679;45.190;5.722;2024-01-16T04:39:55;8.10;62.50
32173;DHT22;18679;45.190;5.722;2024-01-16T04:42:56;8.10;62.60
32173;DHT22;18679;45.190;5.722;2024-01-16T04:45:56;8.20;62.60
32173;DHT22;18679;45.190;5.722;2024-01-16T04:48:57;8.30;62.70
32173;DHT22;18679;45.190;5.722;2024-01-16T04:51:59;8.30;62.60
32173;DHT22;18679;45.190;5.722;2024-01-16T04:55:00;8.30;62.40
32173;DHT22;18679;45.190;5.722;2024-01-16T04:58:01;8.30;62.40
32173;DHT22;18679;45.190;5.722;2024-01-16T05:01:04;8.40;62.40
32173;DHT22;18679;45.190;5.722;2024-01-16T05:04:05;8.40;62.30
32173;DHT22;18679;45.190;5.722;2024-01-16T05:07:08;8.40;62.20
32173;DHT22;18679;45.190;5.722;2024-01-16T05:10:10;8.40;62.10
32173;DHT22;18679;45.190;5.722;2024-01-16T05:13:13;8.50;62.30
32173;DHT22;18679;45.190;5.722;2024-01-16T05:16:14;8.50;62.30
32173;DHT22;18679;45.190;5.722;2024-01-16T05:19:15;8.50;62.30
32173;DHT22;18679;45.190;5.722;2024-01-16T05:22:16;8.60;62.20
32173;DHT22;18679;45.190;5.722;2024-01-16T05:25:18;8.60;62.20
32173;DHT22;18679;45.190;5.722;2024-01-16T05:28:19;8.60;62.10
32173;DHT22;18679;45.190;5.722;2024-01-16T05:31:20;8.60;61.90
32173;DHT22;18679;45.190;5.722;2024-01-16T05:34:21;8.60;61.70
32173;DHT22;18679;45.190;5.722;2024-01-16T05:37:22;8.60;61.60
32173;DHT22;18679;45.190;5.722;2024-01-16T05:40:23;8.50;61.70
32173;DHT22;18679;45.190;5.722;2024-01-16T05:43:25;8.50;61.70
32173;DHT22;18679;45.190;5.722;2024-01-16T05:46:25;8.50;61.70
32173;DHT22;18679;45.190;5.722;2024-01-16T05:49:26;8.50;61.90
32173;DHT22;18679;45.190;5.722;2024-01-16T05:52:27;8.40;61.90
32173;DHT22;18679;45.190;5.722;2024-01-16T05:55:28;8.40;62.10
32173;DHT22;18679;45.190;5.722;2024-01-16T05:58:32;8.40;62.20
32173;DHT22;18679;45.190;5.722;2024-01-16T06:01:37;8.30;62.20
32173;DHT22;18679;45.190;5.722;2024-01-16T06:04:39;8.30;62.30
32173;DHT22;18679;45.190;5.722;2024-01-16T06:07:40;8.20;62.40
32173;DHT22;18679;45.190;5.722;2024-01-16T06:10:41;8.20;62.70
32173;DHT22;18679;45.190;5.722;2024-01-16T06:13:42;8.10;63.00
32173;DHT22;18679;45.190;5.722;2024-01-16T06:16:42;8.10;63.20
32173;DHT22;18679;45.190;5.722;2024-01-16T06:19:44;8.00;63.40
32173;DHT22;18679;45.190;5.722;2024-01-16T06:22:46;8.00;63.70
32173;DHT22;18679;45.190;5.722;2024-01-16T06:25:47;8.00;63.70
32173;DHT22;18679;45.190;5.722;2024-01-16T06:28:48;8.00;63.90
32173;DHT22;18679;45.190;5.722;2024-01-16T06:31:49;8.00;64.00
32173;DHT22;18679;45.190;5.722;2024-01-16T06:34:50;7.90;64.10
32173;DHT22;18679;45.190;5.722;2024-01-16T06:37:51;7.90;64.20
32173;DHT22;18679;45.190;5.722;2024-01-16T06:40:52;7.90;64.30
32173;DHT22;18679;45.190;5.722;2024-01-16T06:43:53;7.90;64.50
32173;DHT22;18679;45.190;5.722;2024-01-16T06:46:54;7.90;64.60
32173;DHT22;18679;45.190;5.722;2024-01-16T06:49:56;7.90;65.20
32173;DHT22;18679;45.190;5.722;2024-01-16T06:52:58;7.90;64.80
32173;DHT22;18679;45.190;5.722;2024-01-16T06:55:59;7.80;64.90
32173;DHT22;18679;45.190;5.722;2024-01-16T06:59:01;7.80;65.00
32173;DHT22;18679;45.190;5.722;2024-01-16T07:02:03;7.90;65.00
32173;DHT22;18679;45.190;5.722;2024-01-16T07:05:04;7.90;64.90
32173;DHT22;18679;45.190;5.722;2024-01-16T07:08:05;7.90;64.90
32173;DHT22;18679;45.190;5.722;2024-01-16T07:11:06;8.00;64.90
32173;DHT22;18679;45.190;5.722;2024-01-16T07:14:10;8.00;64.80
32173;DHT22;18679;45.190;5.722;2024-01-16T07:17:12;8.10;64.70
32173;DHT22;18679;45.190;5.722;2024-01-16T07:20:13;8.10;64.60
32173;DHT22;18679;45.190;5.722;2024-01-16T07:23:14;8.10;64.60
32173;DHT22;18679;45.190;5.722;2024-01-16T07:26:15;8.10;64.60
32173;DHT22;18679;45.190;5.722;2024-01-16T07:29:21;8.10;64.80
32173;DHT22;18679;45.190;5.722;2024-01-16T07:32:21;8.10;65.00
32173;DHT22;18679;45.190;5.722;2024-01-16T07:35:22;8.00;65.20
32173;DHT22;18679;45.190;5.722;2024-01-16T07:38:23;8.00;65.40
32173;DHT22;18679;45.190;5.722;2024-01-16T07:41:24;8.00;65.50
32173;DHT22;18679;45.190;5.722;2024-01-16T07:44:25;8.00;65.70
32173;DHT22;18679;45.190;5.722;2024-01-16T07:47:26;8.00;65.70
32173;DHT22;18679;45.190;5.722;2024-01-16T07:50:28;8.10;65.80
32173;DHT22;18679;45.190;5.722;2024-01-16T07:53:28;8.00;65.80
32173;DHT22;18679;45.190;5.722;2024-01-16T07:56:29;8.00;66.10
32173;DHT22;18679;45.190;5.722;2024-01-16T07:59:30;8.10;66.20
32173;DHT22;18679;45.190;5.722;2024-01-16T08:02:34;8.20;66.20
32173;DHT22;18679;45.190;5.722;2024-01-16T08:05:35;8.30;66.00
32173;DHT22;18679;45.190;5.722;2024-01-16T08:08:36;8.30;65.90
32173;DHT22;18679;45.190;5.722;2024-01-16T08:11:37;8.30;65.80
32173;DHT22;18679;45.190;5.722;2024-01-16T08:14:39;8.40;65.70
32173;DHT22;18679;45.190;5.722;2024-01-16T08:17:40;8.40;65.60
32173;DHT22;18679;45.190;5.722;2024-01-16T08:20:41;8.50;65.50
32173;DHT22;18679;45.190;5.722;2024-01-16T08:23:42;8.50;66.10
32173;DHT22;18679;45.190;5.722;2024-01-16T08:26:43;8.60;65.30
32173;DHT22;18679;45.190;5.722;2024-01-16T08:29:44;8.60;65.20
32173;DHT22;18679;45.190;5.722;2024-01-16T08:32:45;8.60;65.10
32173;DHT22;18679;45.190;5.722;2024-01-16T08:35:45;8.60;64.90
32173;DHT22;18679;45.190;5.722;2024-01-16T08:38:46;8.60;64.80
32173;DHT22;18679;45.190;5.722;2024-01-16T08:41:47;8.60;64.90
32173;DHT22;18679;45.190;5.722;2024-01-16T08:44:48;8.60;65.00
32173;DHT22;18679;45.190;5.722;2024-01-16T08:47:49;8.60;64.90
32173;DHT22;18679;45.190;5.722;2024-01-16T08:50:50;8.70;65.00
32173;DHT22;18679;45.190;5.722;2024-01-16T08:53:51;8.80;64.90
32173;DHT22;18679;45.190;5.722;2024-01-16T08:56:52;8.80;64.70
32173;DHT22;18679;45.190;5.722;2024-01-16T08:59:54;8.80;64.80
32173;DHT22;18679;45.190;5.722;2024-01-16T09:02:55;8.80;64.70
32173;DHT22;18679;45.190;5.722;2024-01-16T09:05:56;8.80;64.50
32173;DHT22;18679;45.190;5.722;2024-01-16T09:08:57;8.80;64.50
32173;DHT22;18679;45.190;5.722;2024-01-16T09:11:58;8.90;64.40
32173;DHT22;18679;45.190;5.722;2024-01-16T09:15:01;8.80;64.30
32173;DHT22;18679;45.190;5.722;2024-01-16T09:18:02;8.90;64.40
32173;DHT22;18679;45.190;5.722;2024-01-16T09:21:05;8.80;64.40
32173;DHT22;18679;45.190;5.722;2024-01-16T09:24:06;8.80;63.60
32173;DHT22;18679;45.190;5.722;2024-01-16T09:27:06;8.80;64.10
32173;DHT22;18679;45.190;5.722;2024-01-16T09:30:10;8.80;64.40
32173;DHT22;18679;45.190;5.722;2024-01-16T09:33:13;8.80;64.50
32173;DHT22;18679;45.190;5.722;2024-01-16T09:36:17;8.90;64.30
32173;DHT22;18679;45.190;5.722;2024-01-16T09:39:21;8.90;64.10
32173;DHT22;18679;45.190;5.722;2024-01-16T09:42:23;8.90;64.10
32173;DHT22;18679;45.190;5.722;2024-01-16T09:45:25;8.90;64.00
32173;DHT22;18679;45.190;5.722;2024-01-16T09:48:28;8.90;64.10
32173;DHT22;18679;45.190;5.722;2024-01-16T09:51:30;9.00;64.20
32173;DHT22;18679;45.190;5.722;2024-01-16T09:54:31;9.00;64.00
32173;DHT22;18679;45.190;5.722;2024-01-16T09:57:32;9.10;63.90
32173;DHT22;18679;45.190;5.722;2024-01-16T10:00:34;9.10;63.70
32173;DHT22;18679;45.190;5.722;2024-01-16T10:03:36;9.20;63.40
32173;DHT22;18679;45.190;5.722;2024-01-16T10:06:39;9.20;63.30
32173;DHT22;18679;45.190;5.722;2024-01-16T10:09:40;9.20;63.40
32173;DHT22;18679;45.190;5.722;2024-01-16T10:12:43;9.30;63.40
32173;DHT22;18679;45.190;5.722;2024-01-16T10:15:44;9.40;63.20
32173;DHT22;18679;45.190;5.722;2024-01-16T10:18:50;9.40;63.10
32173;DHT22;18679;45.190;5.722;2024-01-16T10:22:04;9.50;63.10
32173;DHT22;18679;45.190;5.722;2024-01-16T10:25:08;9.50;63.10
32173;DHT22;18679;45.190;5.722;2024-01-16T10:28:10;9.60;63.00
32173;DHT22;18679;45.190;5.722;2024-01-16T10:31:13;9.70;62.70
32173;DHT22;18679;45.190;5.722;2024-01-16T10:34:22;9.70;62.60
32173;DHT22;18679;45.190;5.722;2024-01-16T10:37:24;9.80;62.80
32173;DHT22;18679;45.190;5.722;2024-01-16T10:40:25;9.80;62.80
32173;DHT22;18679;45.190;5.722;2024-01-16T10:43:27;9.90;62.40
32173;DHT22;18679;45.190;5.722;2024-01-16T10:46:29;10.00;62.40
32173;DHT22;18679;45.190;5.722;2024-01-16T10:49:31;10.10;62.40
32173;DHT22;18679;45.190;5.722;2024-01-16T10:52:33;10.20;62.00
32173;DHT22;18679;45.190;5.722;2024-01-16T10:55:53;10.30;61.60
32173;DHT22;18679;45.190;5.722;2024-01-16T10:59:16;10.20;61.50
32173;DHT22;18679;45.190;5.722;2024-01-16T11:02:20;10.30;61.40
32173;DHT22;18679;45.190;5.722;2024-01-16T11:05:25;10.30;61.30
32173;DHT22;18679;45.190;5.722;2024-01-16T11:08:28;10.30;61.40
32173;DHT22;18679;45.190;5.722;2024-01-16T11:11:33;10.30;61.30
32173;DHT22;18679;45.190;5.722;2024-01-16T11:14:36;10.40;60.90
32173;DHT22;18679;45.190;5.722;2024-01-16T11:17:38;10.30;60.80
32173;DHT22;18679;45.190;5.722;2024-01-16T11:20:41;10.30;60.90
32173;DHT22;18679;45.190;5.722;2024-01-16T11:23:44;10.30;61.20
32173;DHT22;18679;45.190;5.722;2024-01-16T11:26:45;10.40;61.20
32173;DHT22;18679;45.190;5.722;2024-01-16T11:29:50;10.40;61.00
32173;DHT22;18679;45.190;5.722;2024-01-16T11:32:52;10.50;61.10
32173;DHT22;18679;45.190;5.722;2024-01-16T11:35:52;10.50;61.00
32173;DHT22;18679;45.190;5.722;2024-01-16T11:38:57;10.60;61.00
32173;DHT22;18679;45.190;5.722;2024-01-16T11:41:58;10.50;60.70
32173;DHT22;18679;45.190;5.722;2024-01-16T11:45:00;10.40;60.60
32173;DHT22;18679;45.190;5.722;2024-01-16T11:48:14;10.40;61.00
32173;DHT22;18679;45.190;5.722;2024-01-16T11:51:23;10.30;61.40
32173;DHT22;18679;45.190;5.722;2024-01-16T11:54:24;10.30;61.50
32173;DHT22;18679;45.190;5.722;2024-01-16T11:57:47;10.40;61.40
32173;DHT22;18679;45.190;5.722;2024-01-16T12:00:57;10.40;61.40
32173;DHT22;18679;45.190;5.722;2024-01-16T12:04:05;10.30;61.20
32173;DHT22;18679;45.190;5.722;2024-01-16T12:07:07;10.40;61.30
32173;DHT22;18679;45.190;5.722;2024-01-16T12:10:08;10.40;61.10
32173;DHT22;18679;45.190;5.722;2024-01-16T12:13:12;10.40;60.90
32173;DHT22;18679;45.190;5.722;2024-01-16T12:16:13;10.50;60.70
32173;DHT22;18679;45.190;5.722;2024-01-16T12:19:19;10.50;60.40
32173;DHT22;18679;45.190;5.722;2024-01-16T12:22:21;10.60;60.00
32173;DHT22;18679;45.190;5.722;2024-01-16T12:25:24;10.70;59.80
32173;DHT22;18679;45.190;5.722;2024-01-16T12:28:26;10.70;59.60
32173;DHT22;18679;45.190;5.722;2024-01-16T12:31:28;10.80;59.30
32173;DHT22;18679;45.190;5.722;2024-01-16T12:34:29;10.80;59.30
32173;DHT22;18679;45.190;5.722;2024-01-16T12:37:30;10.90;59.50
32173;DHT22;18679;45.190;5.722;2024-01-16T12:40:32;10.90;59.50
32173;DHT22;18679;45.190;5.722;2024-01-16T12:43:34;11.00;59.50
32173;DHT22;18679;45.190;5.722;2024-01-16T12:46:34;11.10;59.40
32173;DHT22;18679;45.190;5.722;2024-01-16T12:49:42;11.00;59.40
32173;DHT22;18679;45.190;5.722;2024-01-16T12:52:46;11.00;59.50
32173;DHT22;18679;45.190;5.722;2024-01-16T12:55:57;11.00;59.50
32173;DHT22;18679;45.190;5.722;2024-01-16T12:59:11;11.10;59.80
32173;DHT22;18679;45.190;5.722;2024-01-16T13:02:23;11.20;59.60
32173;DHT22;18679;45.190;5.722;2024-01-16T13:05:25;11.20;59.40
32173;DHT22;18679;45.190;5.722;2024-01-16T13:08:26;11.50;59.40
32173;DHT22;18679;45.190;5.722;2024-01-16T13:11:29;11.50;59.20
32173;DHT22;18679;45.190;5.722;2024-01-16T13:14:30;11.50;59.00
32173;DHT22;18679;45.190;5.722;2024-01-16T13:17:33;11.40;59.20
32173;DHT22;18679;45.190;5.722;2024-01-16T13:20:34;11.40;59.50
32173;DHT22;18679;45.190;5.722;2024-01-16T13:23:35;11.40;59.20
32173;DHT22;18679;45.190;5.722;2024-01-16T13:26:38;11.40;59.20
32173;DHT22;18679;45.190;5.722;2024-01-16T13:29:39;11.40;59.10
32173;DHT22;18679;45.190;5.722;2024-01-16T13:32:40;11.50;59.10
32173;DHT22;18679;45.190;5.722;2024-01-16T13:35:47;11.50;58.70
32173;DHT22;18679;45.190;5.722;2024-01-16T13:38:50;11.60;58.90
32173;DHT22;18679;45.190;5.722;2024-01-16T13:41:51;11.70;58.80
32173;DHT22;18679;45.190;5.722;2024-01-16T13:44:52;11.70;58.50
32173;DHT22;18679;45.190;5.722;2024-01-16T13:47:57;11.80;58.00
32173;DHT22;18679;45.190;5.722;2024-01-16T13:50:58;11.80;57.90
32173;DHT22;18679;45.190;5.722;2024-01-16T13:53:58;11.70;57.60
32173;DHT22;18679;45.190;5.722;2024-01-16T13:57:00;11.70;57.50
32173;DHT22;18679;45.190;5.722;2024-01-16T14:00:02;11.70;57.50
32173;DHT22;18679;45.190;5.722;2024-01-16T14:03:12;11.70;57.40
32173;DHT22;18679;45.190;5.722;2024-01-16T14:06:13;11.80;57.50
32173;DHT22;18679;45.190;5.722;2024-01-16T14:09:14;11.70;57.60
32173;DHT22;18679;45.190;5.722;2024-01-16T14:12:14;11.80;57.60
32173;DHT22;18679;45.190;5.722;2024-01-16T14:15:21;11.70;57.50
32173;DHT22;18679;45.190;5.722;2024-01-16T14:18:24;11.80;57.60
32173;DHT22;18679;45.190;5.722;2024-01-16T14:21:25;11.70;57.30
32173;DHT22;18679;45.190;5.722;2024-01-16T14:24:27;11.70;57.20
32173;DHT22;18679;45.190;5.722;2024-01-16T14:27:28;11.60;57.20
32173;DHT22;18679;45.190;5.722;2024-01-16T14:30:30;11.50;57.30
32173;DHT22;18679;45.190;5.722;2024-01-16T14:33:31;11.40;57.60
32173;DHT22;18679;45.190;5.722;2024-01-16T14:36:33;11.30;57.60
32173;DHT22;18679;45.190;5.722;2024-01-16T14:39:35;11.30;57.90
32173;DHT22;18679;45.190;5.722;2024-01-16T14:42:37;11.20;58.10
32173;DHT22;18679;45.190;5.722;2024-01-16T14:45:38;11.30;58.10
32173;DHT22;18679;45.190;5.722;2024-01-16T14:48:49;11.30;58.20
32173;DHT22;18679;45.190;5.722;2024-01-16T14:51:50;11.20;58.20
32173;DHT22;18679;45.190;5.722;2024-01-16T14:54:51;11.30;58.20
32173;DHT22;18679;45.190;5.722;2024-01-16T14:57:52;11.20;57.90
32173;DHT22;18679;45.190;5.722;2024-01-16T15:00:56;11.30;58.10
32173;DHT22;18679;45.190;5.722;2024-01-16T15:03:57;11.30;58.20
32173;DHT22;18679;45.190;5.722;2024-01-16T15:06:58;11.20;58.20
32173;DHT22;18679;45.190;5.722;2024-01-16T15:09:59;11.20;58.40
32173;DHT22;18679;45.190;5.722;2024-01-16T15:13:00;11.20;58.50
32173;DHT22;18679;45.190;5.722;2024-01-16T15:16:01;11.20;58.50
32173;DHT22;18679;45.190;5.722;2024-01-16T15:19:02;11.20;58.50
32173;DHT22;18679;45.190;5.722;2024-01-16T15:22:03;11.10;58.50
32173;DHT22;18679;45.190;5.722;2024-01-16T15:25:05;11.10;58.40
32173;DHT22;18679;45.190;5.722;2024-01-16T15:28:10;11.10;58.40
32173;DHT22;18679;45.190;5.722;2024-01-16T15:31:12;11.00;58.50
32173;DHT22;18679;45.190;5.722;2024-01-16T15:34:14;10.90;58.60
32173;DHT22;18679;45.190;5.722;2024-01-16T15:37:14;10.90;58.60
32173;DHT22;18679;45.190;5.722;2024-01-16T15:40:16;10.90;58.70
32173;DHT22;18679;45.190;5.722;2024-01-16T15:43:18;10.90;58.80
32173;DHT22;18679;45.190;5.722;2024-01-16T15:46:19;10.90;58.80
32173;DHT22;18679;45.190;5.722;2024-01-16T15:49:21;11.00;58.90
32173;DHT22;18679;45.190;5.722;2024-01-16T15:52:22;11.00;58.80
32173;DHT22;18679;45.190;5.722;2024-01-16T15:55:24;11.00;58.60
32173;DHT22;18679;45.190;5.722;2024-01-16T15:58:25;11.00;58.60
32173;DHT22;18679;45.190;5.722;2024-01-16T16:01:27;11.00;58.60
32173;DHT22;18679;45.190;5.722;2024-01-16T16:04:28;11.00;58.60
32173;DHT22;18679;45.190;5.722;2024-01-16T16:07:29;11.00;58.50
32173;DHT22;18679;45.190;5.722;2024-01-16T16:10:31;11.00;58.30
32173;DHT22;18679;45.190;5.722;2024-01-16T16:13:32;11.00;58.30
32173;DHT22;18679;45.190;5.722;2024-01-16T16:16:33;10.90;58.20
32173;DHT22;18679;45.190;5.722;2024-01-16T16:19:36;11.00;58.30
32173;DHT22;18679;45.190;5.722;2024-01-16T16:22:37;10.90;58.80
32173;DHT22;18679;45.190;5.722;2024-01-16T16:25:45;11.00;58.20
32173;DHT22;18679;45.190;5.722;2024-01-16T16:28:47;10.90;58.00
32173;DHT22;18679;45.190;5.722;2024-01-16T16:31:48;10.90;57.90
32173;DHT22;18679;45.190;5.722;2024-01-16T16:34:49;10.90;57.80
32173;DHT22;18679;45.190;5.722;2024-01-16T16:37:50;10.90;57.80
32173;DHT22;18679;45.190;5.722;2024-01-16T16:40:51;10.80;57.70
32173;DHT22;18679;45.190;5.722;2024-01-16T16:43:52;10.80;57.70
32173;DHT22;18679;45.190;5.722;2024-01-16T16:46:53;10.80;57.80
32173;DHT22;18679;45.190;5.722;2024-01-16T16:49:54;10.80;57.80
32173;DHT22;18679;45.190;5.722;2024-01-16T16:52:54;10.80;57.80
32173;DHT22;18679;45.190;5.722;2024-01-16T16:55:55;10.80;57.90
32173;DHT22;18679;45.190;5.722;2024-01-16T16:58:56;10.80;57.90
32173;DHT22;18679;45.190;5.722;2024-01-16T17:01:58;10.70;57.90
32173;DHT22;18679;45.190;5.722;2024-01-16T17:04:59;10.70;58.00
32173;DHT22;18679;45.190;5.722;2024-01-16T17:08:00;10.80;58.20
32173;DHT22;18679;45.190;5.722;2024-01-16T17:11:05;10.70;58.20
32173;DHT22;18679;45.190;5.722;2024-01-16T17:14:06;10.70;58.30
32173;DHT22;18679;45.190;5.722;2024-01-16T17:17:07;10.70;58.30
32173;DHT22;18679;45.190;5.722;2024-01-16T17:20:10;10.70;58.50
32173;DHT22;18679;45.190;5.722;2024-01-16T17:23:13;10.60;58.50
32173;DHT22;18679;45.190;5.722;2024-01-16T17:26:16;10.50;58.50
32173;DHT22;18679;45.190;5.722;2024-01-16T17:29:17;10.60;58.70
32173;DHT22;18679;45.190;5.722;2024-01-16T17:32:18;10.50;58.80
32173;DHT22;18679;45.190;5.722;2024-01-16T17:35:23;10.50;58.90
32173;DHT22;18679;45.190;5.722;2024-01-16T17:38:24;10.50;59.00
32173;DHT22;18679;45.190;5.722;2024-01-16T17:41:26;10.50;59.00
32173;DHT22;18679;45.190;5.722;2024-01-16T17:44:29;10.50;59.00
32173;DHT22;18679;45.190;5.722;2024-01-16T17:47:35;10.50;58.90
32173;DHT22;18679;45.190;5.722;2024-01-16T17:50:38;10.50;58.80
32173;DHT22;18679;45.190;5.722;2024-01-16T17:53:43;10.50;58.90
32173;DHT22;18679;45.190;5.722;2024-01-16T17:56:45;10.40;58.70
32173;DHT22;18679;45.190;5.722;2024-01-16T17:59:49;10.40;58.80
32173;DHT22;18679;45.190;5.722;2024-01-16T18:02:50;10.40;58.80
32173;DHT22;18679;45.190;5.722;2024-01-16T18:05:51;10.30;58.80
32173;DHT22;18679;45.190;5.722;2024-01-16T18:08:54;10.30;58.80
32173;DHT22;18679;45.190;5.722;2024-01-16T18:11:57;10.30;58.80
32173;DHT22;18679;45.190;5.722;2024-01-16T18:14:58;10.20;58.80
32173;DHT22;18679;45.190;5.722;2024-01-16T18:17:58;10.20;58.80
32173;DHT22;18679;45.190;5.722;2024-01-16T18:21:00;10.20;58.70
32173;DHT22;18679;45.190;5.722;2024-01-16T18:24:01;10.20;58.50
32173;DHT22;18679;45.190;5.722;2024-01-16T18:27:02;10.10;58.30
32173;DHT22;18679;45.190;5.722;2024-01-16T18:30:06;10.10;58.40
32173;DHT22;18679;45.190;5.722;2024-01-16T18:33:07;10.10;58.40
32173;DHT22;18679;45.190;5.722;2024-01-16T18:36:09;10.20;58.40
32173;DHT22;18679;45.190;5.722;2024-01-16T18:39:10;10.20;58.30
32173;DHT22;18679;45.190;5.722;2024-01-16T18:42:13;10.20;58.30
32173;DHT22;18679;45.190;5.722;2024-01-16T18:45:13;10.20;58.30
32173;DHT22;18679;45.190;5.722;2024-01-16T18:48:17;10.20;58.40
32173;DHT22;18679;45.190;5.722;2024-01-16T18:51:21;10.20;58.40
32173;DHT22;18679;45.190;5.722;2024-01-16T18:54:22;10.20;58.30
32173;DHT22;18679;45.190;5.722;2024-01-16T18:57:24;10.20;58.40
32173;DHT22;18679;45.190;5.722;2024-01-16T19:00:25;10.20;58.40
32173;DHT22;18679;45.190;5.722;2024-01-16T19:03:28;10.20;58.60
32173;DHT22;18679;45.190;5.722;2024-01-16T19:06:29;10.20;58.70
32173;DHT22;18679;45.190;5.722;2024-01-16T19:09:30;10.10;58.70
32173;DHT22;18679;45.190;5.722;2024-01-16T19:12:37;10.10;58.80
32173;DHT22;18679;45.190;5.722;2024-01-16T19:15:38;10.10;58.80
32173;DHT22;18679;45.190;5.722;2024-01-16T19:18:39;10.10;58.90
32173;DHT22;18679;45.190;5.722;2024-01-16T19:21:43;10.10;59.00